Flight Track Log - Related Links

Times and Time Zones

All times are in EDT time to prevent confusion due to time zone crossing. See the EGF4039 flight status page for this flight to view local times or setup timezone preferences in your user account.

Time Position Orientation Groundspeed Altitude Reporting Facility
EDT Latitude Longitude Course Direction KTS MPH feet Rate Location/Type
Fri 06:38:13 PM 42.6244 -92.3908 97° East 226 260 5,900  Level Chicago Center
Fri 06:39:15 PM 42.6128 -92.3064 101° East 227 261 8,300 2,371 Climbing Chicago Center
Fri 06:40:17 PM 42.6003 -92.2178 101° East 234 269 10,800 2,177 Climbing Chicago Center
Fri 06:41:00 PM 42.4836 -91.6861 97° East  Level FlightAware Approximate
Fri 06:41:19 PM 42.5869 -92.1022 99° East 251 289 12,800  Level Chicago Center
Fri 06:42:00 PM 42.4768 -91.5648 97° East  Level FlightAware Approximate
Fri 06:42:21 PM 42.5722 -91.9889 100° East 293 337 14,000  Level Chicago Center
Fri 06:43:00 PM 42.4653 -91.4440 97° East  Level FlightAware Approximate
Fri 06:43:24 PM 42.5575 -91.8628 99° East 335 386 15,200  Level Chicago Center
Fri 06:44:26 PM 42.5392 -91.7294 101° East 358 412 16,400 1,258 Climbing Chicago Center
Fri 06:45:28 PM 42.5172 -91.5617 100° East 379 436 17,800 1,258 Climbing Chicago Center
Fri 06:46:30 PM 42.5158 -91.4147 91° East 398 458 19,000 1,113 Climbing Chicago Center
Fri 06:47:32 PM 42.5197 -91.2667 88° East 401 461 20,100 1,113 Climbing Chicago Center
Fri 06:48:34 PM 42.5242 -91.1125 88° East 413 475 21,300 1,258 Climbing Chicago Center
Fri 06:49:36 PM 42.5289 -90.9219 88° East 424 488 22,700 823 Climbing Chicago Center
Fri 06:50:38 PM 42.5314 -90.7589 89° East 436 502 23,000 145 Climbing Chicago Center
Fri 06:51:40 PM 42.5353 -90.5917 88° East 447 514 23,000  Level Chicago Center
Fri 06:52:42 PM 42.5389 -90.4278 88° East 441 507 23,000  Level Chicago Center
Fri 06:53:45 PM 42.5431 -90.2381 88° East 426 490 23,000  Level Chicago Center
Fri 06:54:47 PM 42.5453 -90.0819 89° East 420 483 23,000 -145 Level Chicago Center
Fri 06:55:49 PM 42.5469 -89.9097 89° East 417 480 22,700 -1,065 Descending Chicago Center
Fri 06:56:51 PM 42.5483 -89.7508 89° East 420 483 20,800 -1,887 Descending Chicago Center
Fri 06:57:53 PM 42.5514 -89.5867 88° East 434 499 18,800 -1,887 Descending Chicago Center
Fri 06:58:55 PM 42.5525 -89.4239 89° East 435 501 16,900 -1,887 Descending Chicago Center
Fri 06:59:57 PM 42.5539 -89.2803 89° East 393 452 14,900 -1,355 Descending Chicago Center
Fri 07:00:59 PM 42.5572 -89.1283 88° East 350 403 14,100 -387 Descending Chicago Center
Fri 07:02:01 PM 42.5256 -89.0003 109° East 363 418 14,100 -48 Level Chicago Center
Fri 07:03:03 PM 42.4864 -88.8717 112° Southeast 371 427 14,000 -968 Descending Chicago Center
Fri 07:04:05 PM 42.4486 -88.7450 112° Southeast 365 420 12,100 -1,742 Descending Chicago Center
Fri 07:05:07 PM 42.4133 -88.6247 112° Southeast 350 403 10,400 -1,440 Descending Chicago Center
Fri 07:06:10 PM 42.3753 -88.5033 113° Southeast 311 358 9,100 -1,056 Descending Chicago Center
Fri 07:07:12 PM 42.3208 -88.4708 156° South 280 322 8,200 -532 Descending Chicago Center
Fri 07:08:14 PM 42.2453 -88.4633 176° South 232 267 8,000 -97 Descending Chicago Center
Fri 07:09:16 PM 42.1906 -88.4606 178° South 205 236 8,000  Level Chicago Center
Fri 07:10:18 PM 42.1331 -88.4539 175° South 207 238 8,000 -290 Level Chicago Center
Fri 07:11:20 PM 42.0756 -88.4475 175° South 208 239 7,400 -484 Descending Chicago Center
Fri 07:12:22 PM 42.0194 -88.4422 176° South 205 236 7,000 -532 Descending Chicago Center
Fri 07:13:24 PM 41.9797 -88.3989 141° Southeast 198 228 6,300 -871 Descending Chicago Center
Fri 07:14:26 PM 41.9675 -88.3147 101° East 204 235 5,200 -629 Descending Chicago Center
Fri 07:15:28 PM 41.9675 -88.2447 90° East 195 224 5,000 -435 Descending Chicago Center
Fri 07:16:30 PM 41.9681 -88.1739 89° East 192 221 4,300 -871 Descending Chicago Center
Fri 07:17:32 PM 41.9675 -88.1019 91° East 192 221 3,200 -1,065 Descending Chicago Center

Login

Don't have an account? Register now (free) for customized features, flight alerts, and more!